createdAt,value
2022-11-20T00:00:52.930Z,65.90
2022-11-20T00:02:55.756Z,66.00
2022-11-20T00:04:59.882Z,65.70
2022-11-20T00:07:02.780Z,65.50
2022-11-20T00:09:06.330Z,65.80
2022-11-20T00:11:15.546Z,65.70
2022-11-20T00:13:19.169Z,65.90
2022-11-20T00:15:22.097Z,65.60
2022-11-20T00:17:24.924Z,65.80
2022-11-20T00:19:27.879Z,65.50
2022-11-20T00:21:32.527Z,65.70
2022-11-20T00:23:35.952Z,65.70
2022-11-20T00:25:38.788Z,65.60
2022-11-20T00:27:41.644Z,65.60
2022-11-20T00:29:44.510Z,65.50
2022-11-20T00:31:47.300Z,65.50
2022-11-20T00:33:50.154Z,65.20
2022-11-20T00:35:52.974Z,65.10
2022-11-20T00:37:57.123Z,65.00
2022-11-20T00:39:59.978Z,64.80
2022-11-20T00:42:02.873Z,64.90
2022-11-20T00:44:05.904Z,64.80
2022-11-20T00:46:10.775Z,64.60
2022-11-20T00:48:13.583Z,65.00
2022-11-20T00:50:16.605Z,65.00
2022-11-20T00:52:19.441Z,64.90
2022-11-20T00:54:23.682Z,64.80
2022-11-20T00:56:26.565Z,64.90
2022-11-20T00:58:32.272Z,64.90
2022-11-20T01:00:35.100Z,64.80
2022-11-20T01:02:37.964Z,64.50
2022-11-20T01:04:40.801Z,65.00
2022-11-20T01:06:43.665Z,65.00
2022-11-20T01:08:47.457Z,64.90
2022-11-20T01:10:51.741Z,64.80
2022-11-20T01:13:15.103Z,64.90
2022-11-20T01:15:18.094Z,65.00
2022-11-20T01:17:20.934Z,64.70
2022-11-20T01:19:25.520Z,64.80
2022-11-20T01:21:30.669Z,64.70
2022-11-20T01:23:34.916Z,65.10
2022-11-20T01:25:37.803Z,65.10
2022-11-20T01:27:41.964Z,65.10
2022-11-20T01:29:44.805Z,65.00
2022-11-20T01:31:48.235Z,65.30
2022-11-20T01:33:53.186Z,65.30
2022-11-20T01:36:05.226Z,65.20
2022-11-20T01:38:08.083Z,65.10
2022-11-20T01:40:12.255Z,65.00
2022-11-20T01:42:32.549Z,64.80
2022-11-20T01:45:04.012Z,64.70
2022-11-20T01:47:09.494Z,64.50
2022-11-20T01:49:18.630Z,64.60
2022-11-20T01:51:27.574Z,64.60
2022-11-20T01:53:34.459Z,64.60
2022-11-20T01:55:41.599Z,64.60
2022-11-20T01:57:47.464Z,64.60
2022-11-20T01:59:56.124Z,64.60
2022-11-20T02:02:00.681Z,64.70
2022-11-20T02:04:04.148Z,64.50
2022-11-20T02:06:14.085Z,64.50
2022-11-20T02:08:19.141Z,64.40
2022-11-20T02:10:22.587Z,64.30
2022-11-20T02:12:42.780Z,64.20
2022-11-20T02:14:45.615Z,64.10
2022-11-20T02:16:50.552Z,64.10
2022-11-20T02:18:56.793Z,64.20
2022-11-20T02:21:06.060Z,64.20
2022-11-20T02:23:14.018Z,64.30
2022-11-20T02:25:19.672Z,64.90
2022-11-20T02:27:23.277Z,64.50
2022-11-20T02:29:29.088Z,64.20
2022-11-20T02:31:38.110Z,64.20
2022-11-20T02:33:41.008Z,64.40
2022-11-20T02:35:47.813Z,64.50
2022-11-20T02:37:54.943Z,64.60
2022-11-20T02:39:57.809Z,64.60
2022-11-20T02:42:04.024Z,64.50
2022-11-20T02:44:07.546Z,64.20
2022-11-20T02:46:10.887Z,64.10
2022-11-20T02:48:13.737Z,64.40
2022-11-20T02:50:17.018Z,64.50
2022-11-20T02:52:19.872Z,64.50
2022-11-20T02:54:22.739Z,64.30
2022-11-20T02:56:26.064Z,64.40
2022-11-20T02:58:30.293Z,64.20
2022-11-20T03:00:33.619Z,64.30
2022-11-20T03:02:36.570Z,64.30
2022-11-20T03:04:39.385Z,64.40
2022-11-20T03:06:42.276Z,64.50
2022-11-20T03:08:45.121Z,64.40
2022-11-20T03:10:47.974Z,64.60
2022-11-20T03:12:55.208Z,64.70
2022-11-20T03:14:59.416Z,64.50
2022-11-20T03:17:02.248Z,64.60
2022-11-20T03:19:05.163Z,64.50
2022-11-20T03:21:08.131Z,64.30
2022-11-20T03:23:10.942Z,64.10
2022-11-20T03:25:13.761Z,64.10
2022-11-20T03:27:16.673Z,64.20
2022-11-20T03:29:19.857Z,64.30
2022-11-20T03:31:25.912Z,64.40
2022-11-20T03:33:30.304Z,64.60
2022-11-20T03:35:33.130Z,64.80
2022-11-20T03:37:35.981Z,64.60
2022-11-20T03:39:38.845Z,64.40
2022-11-20T03:41:43.184Z,64.30
2022-11-20T03:43:49.626Z,64.50
2022-11-20T03:45:52.451Z,64.70
2022-11-20T03:47:56.608Z,65.30
2022-11-20T03:49:59.424Z,66.00
2022-11-20T03:52:02.229Z,66.40
2022-11-20T03:54:07.146Z,66.90
2022-11-20T03:56:10.966Z,67.00
2022-11-20T03:58:14.399Z,66.80
2022-11-20T04:00:17.805Z,66.60
2022-11-20T04:02:20.718Z,66.50
2022-11-20T04:04:25.068Z,66.20
2022-11-20T04:06:30.515Z,66.20
2022-11-20T04:08:33.800Z,65.90
2022-11-20T04:10:36.621Z,65.70
2022-11-20T04:12:39.446Z,65.30
2022-11-20T04:14:42.239Z,65.10
2022-11-20T04:16:45.408Z,64.70
2022-11-20T04:18:48.350Z,64.80
2022-11-20T04:20:52.531Z,65.20
2022-11-20T04:22:56.434Z,65.50
2022-11-20T04:24:59.330Z,65.20
2022-11-20T04:27:02.156Z,65.40
2022-11-20T04:29:05.434Z,65.30
2022-11-20T04:31:10.159Z,65.10
2022-11-20T04:33:12.947Z,65.60
2022-11-20T04:35:15.862Z,64.50
2022-11-20T04:37:20.055Z,64.50
2022-11-20T04:39:23.140Z,64.50
2022-11-20T04:41:27.842Z,64.40
2022-11-20T04:43:31.265Z,64.30
2022-11-20T04:45:34.064Z,64.40
2022-11-20T04:47:36.920Z,64.20
2022-11-20T04:49:39.773Z,64.00
2022-11-20T04:51:42.610Z,64.00
2022-11-20T04:53:46.867Z,64.10
2022-11-20T04:55:49.821Z,64.00
2022-11-20T04:57:53.096Z,64.00
2022-11-20T04:59:55.903Z,63.90
2022-11-20T05:01:59.097Z,64.00
2022-11-20T05:04:02.006Z,64.40
2022-11-20T05:06:06.324Z,64.40
2022-11-20T05:08:09.198Z,64.50
2022-11-20T05:10:13.371Z,64.30
2022-11-20T05:12:16.189Z,64.20
2022-11-20T05:14:18.979Z,64.00
2022-11-20T05:16:25.619Z,64.00
2022-11-20T05:18:28.541Z,63.90
2022-11-20T05:20:31.399Z,63.80
2022-11-20T05:22:34.187Z,64.10
2022-11-20T05:24:37.002Z,64.10
2022-11-20T05:26:41.124Z,64.10
2022-11-20T05:28:44.077Z,64.10
2022-11-20T05:30:46.906Z,64.10
2022-11-20T05:32:49.723Z,64.00
2022-11-20T05:34:52.556Z,63.90
2022-11-20T05:36:55.364Z,64.00
2022-11-20T05:39:01.453Z,63.80
2022-11-20T05:41:08.716Z,63.70
2022-11-20T05:43:12.892Z,63.70
2022-11-20T05:45:15.793Z,63.80
2022-11-20T05:47:18.629Z,63.50
2022-11-20T05:49:21.735Z,63.60
2022-11-20T05:51:25.424Z,63.60
2022-11-20T05:53:28.268Z,63.50
2022-11-20T05:55:31.120Z,63.50
2022-11-20T05:57:34.309Z,63.50
2022-11-20T05:59:38.540Z,63.80
2022-11-20T06:01:41.579Z,64.00
2022-11-20T06:03:46.884Z,64.00
2022-11-20T06:05:49.778Z,64.00
2022-11-20T06:07:52.620Z,64.00
2022-11-20T06:09:55.432Z,63.90
2022-11-20T06:11:58.538Z,63.80
2022-11-20T06:14:01.343Z,64.00
2022-11-20T06:16:06.055Z,64.20
2022-11-20T06:18:08.879Z,64.30
2022-11-20T06:20:12.606Z,64.50
2022-11-20T06:22:15.400Z,64.50
2022-11-20T06:24:18.363Z,64.50
2022-11-20T06:26:22.986Z,64.60
2022-11-20T06:28:25.856Z,64.70
2022-11-20T06:30:28.668Z,65.00
2022-11-20T06:32:32.896Z,64.60
2022-11-20T06:34:35.731Z,64.80
2022-11-20T06:36:38.633Z,64.90
2022-11-20T06:38:42.091Z,65.00
2022-11-20T06:40:45.398Z,65.00
2022-11-20T06:42:48.196Z,65.10
2022-11-20T06:44:51.021Z,65.50
2022-11-20T06:46:53.785Z,65.70
2022-11-20T06:48:58.993Z,65.90
2022-11-20T06:51:01.835Z,65.80
2022-11-20T06:53:05.356Z,65.70
2022-11-20T06:55:09.178Z,65.40
2022-11-20T06:57:12.097Z,65.20
2022-11-20T06:59:14.861Z,65.40
2022-11-20T07:01:17.836Z,65.20
2022-11-20T07:03:20.752Z,65.30
2022-11-20T07:05:24.893Z,65.30
2022-11-20T07:07:27.817Z,65.20
2022-11-20T07:09:30.690Z,65.40
2022-11-20T07:11:33.529Z,65.60
2022-11-20T07:13:36.540Z,66.20
2022-11-20T07:15:39.388Z,65.50
2022-11-20T07:17:42.209Z,65.40
2022-11-20T07:19:45.069Z,65.30
2022-11-20T07:21:49.226Z,65.10
2022-11-20T07:23:52.148Z,65.40
2022-11-20T07:25:54.968Z,65.60
2022-11-20T07:27:59.541Z,66.00
2022-11-20T07:30:02.388Z,66.20
2022-11-20T07:32:06.431Z,66.00
2022-11-20T07:34:09.383Z,65.90
2022-11-20T07:36:12.183Z,65.50
2022-11-20T07:38:16.368Z,66.00
2022-11-20T07:40:20.603Z,66.30
2022-11-20T07:42:23.451Z,66.20
2022-11-20T07:44:26.257Z,66.60
2022-11-20T07:46:29.093Z,66.40
2022-11-20T07:48:31.884Z,66.30
2022-11-20T07:50:34.802Z,66.30
2022-11-20T07:52:37.586Z,66.20
2022-11-20T07:54:41.756Z,66.00
2022-11-20T07:56:44.592Z,65.90
2022-11-20T07:58:47.545Z,65.90
2022-11-20T08:00:50.475Z,65.50
2022-11-20T08:02:53.423Z,65.70
2022-11-20T08:04:56.310Z,66.10
2022-11-20T08:06:59.139Z,66.50
2022-11-20T08:09:02.001Z,66.70
2022-11-20T08:11:23.936Z,67.60
2022-11-20T08:13:44.383Z,68.00
2022-11-20T08:15:51.693Z,69.50
2022-11-20T08:18:28.781Z,70.50
2022-11-20T08:20:23.490Z,70.70
2022-11-20T08:22:26.710Z,70.10
2022-11-20T08:24:29.536Z,69.90
2022-11-20T08:26:33.735Z,69.90
2022-11-20T08:28:36.556Z,70.00
2022-11-20T08:30:39.751Z,69.80
2022-11-20T08:32:42.566Z,69.50
2022-11-20T08:34:45.366Z,70.00
2022-11-20T08:36:48.163Z,69.40
2022-11-20T08:38:51.512Z,69.80
2022-11-20T08:41:11.770Z,70.40
2022-11-20T08:43:16.054Z,70.30
2022-11-20T08:45:20.696Z,70.60
2022-11-20T08:47:23.776Z,70.60
2022-11-20T08:49:26.625Z,70.80
2022-11-20T08:51:29.847Z,71.20
2022-11-20T08:53:32.656Z,71.50
2022-11-20T08:55:37.742Z,71.70
2022-11-20T08:57:40.777Z,71.50
2022-11-20T09:02:07.940Z,71.80
2022-11-20T09:04:10.745Z,72.50
2022-11-20T09:06:13.877Z,73.10
2022-11-20T09:08:16.738Z,72.80
2022-11-20T09:10:24.507Z,72.00
2022-11-20T09:12:27.780Z,72.10
2022-11-20T09:14:31.058Z,71.30
2022-11-20T09:16:35.240Z,71.00
2022-11-20T09:18:38.615Z,70.90
2022-11-20T09:20:41.650Z,70.80
2022-11-20T09:22:44.492Z,71.40
2022-11-20T09:24:47.314Z,71.10
2022-11-20T09:26:50.146Z,70.60
2022-11-20T09:28:56.803Z,70.00
2022-11-20T09:31:00.950Z,70.50
2022-11-20T09:33:06.791Z,71.20
2022-11-20T09:35:10.447Z,71.20
2022-11-20T09:37:13.242Z,71.60
2022-11-20T09:39:16.148Z,71.20
2022-11-20T09:41:38.349Z,71.00
2022-11-20T09:43:58.636Z,70.90
2022-11-20T09:46:10.272Z,71.70
2022-11-20T09:48:27.625Z,72.00
2022-11-20T09:50:35.184Z,71.20
2022-11-20T09:52:51.733Z,70.90
2022-11-20T09:54:56.243Z,70.70
2022-11-20T09:57:02.645Z,70.80
2022-11-20T09:59:09.510Z,71.20
2022-11-20T10:01:16.007Z,71.70
2022-11-20T10:03:26.935Z,71.50
2022-11-20T10:05:33.716Z,71.60
2022-11-20T10:07:43.454Z,71.70
2022-11-20T10:09:53.350Z,71.00
2022-11-20T10:12:07.894Z,71.70
2022-11-20T10:14:19.951Z,70.80
2022-11-20T10:16:36.677Z,69.60
2022-11-20T10:18:56.354Z,69.30
2022-11-20T10:21:10.497Z,71.30
2022-11-20T10:23:49.155Z,71.10
2022-11-20T10:25:58.170Z,70.80
2022-11-20T10:28:17.898Z,71.10
2022-11-20T10:30:22.964Z,71.30
2022-11-20T10:32:33.148Z,71.30
2022-11-20T10:34:46.962Z,71.10
2022-11-20T10:36:56.709Z,71.70
2022-11-20T10:39:05.839Z,71.40
2022-11-20T10:41:31.932Z,70.70
2022-11-20T10:43:37.625Z,71.50
2022-11-20T10:45:49.290Z,71.80
2022-11-20T10:47:52.674Z,72.60
2022-11-20T10:49:59.575Z,72.20
2022-11-20T10:52:11.117Z,72.80
2022-11-20T10:54:22.946Z,72.50
2022-11-20T10:56:33.111Z,71.90
2022-11-20T10:58:46.040Z,72.00
2022-11-20T11:00:49.022Z,72.00
2022-11-20T11:02:53.996Z,71.30
2022-11-20T11:04:58.549Z,71.90
2022-11-20T11:07:09.288Z,72.00
2022-11-20T11:09:18.386Z,71.60
2022-11-20T11:11:25.367Z,72.00
2022-11-20T11:13:30.162Z,71.80
2022-11-20T11:15:40.346Z,71.90
2022-11-20T11:17:49.320Z,71.80
2022-11-20T11:20:16.055Z,72.00
2022-11-20T11:22:20.570Z,71.30
2022-11-20T11:24:42.634Z,70.90
2022-11-20T11:26:54.746Z,71.20
2022-11-20T11:28:58.906Z,71.80
2022-11-20T11:31:01.740Z,71.80
2022-11-20T11:33:07.391Z,72.10
2022-11-20T11:35:23.920Z,71.80
2022-11-20T11:37:31.362Z,71.20
2022-11-20T11:39:35.437Z,71.10
2022-11-20T11:41:38.396Z,71.00
2022-11-20T11:44:07.396Z,71.50
2022-11-20T11:46:31.065Z,71.00
2022-11-20T11:48:33.962Z,71.30
2022-11-20T11:50:38.180Z,71.00
2022-11-20T11:52:47.500Z,69.90
2022-11-20T11:54:55.084Z,68.60
2022-11-20T11:57:00.502Z,69.80
2022-11-20T11:59:08.656Z,69.40
2022-11-20T12:01:24.134Z,68.80
2022-11-20T12:03:31.222Z,67.80
2022-11-20T12:05:43.979Z,68.10
2022-11-20T12:07:49.911Z,69.40
2022-11-20T12:09:56.551Z,69.80
2022-11-20T12:12:07.668Z,69.60
2022-11-20T12:14:16.516Z,69.40
2022-11-20T12:16:21.705Z,67.50
2022-11-20T12:18:24.918Z,67.60
2022-11-20T12:20:31.602Z,68.20
2022-11-20T12:22:43.430Z,67.90
2022-11-20T12:24:57.358Z,68.00
2022-11-20T12:27:10.416Z,68.90
2022-11-20T12:29:26.426Z,66.60
2022-11-20T12:31:43.350Z,67.90
2022-11-20T12:34:00.402Z,67.10
2022-11-20T12:36:16.306Z,67.80
2022-11-20T12:38:41.551Z,68.20
2022-11-20T12:40:53.977Z,67.90
2022-11-20T12:43:28.893Z,66.50
2022-11-20T12:45:51.355Z,65.70
2022-11-20T12:48:16.987Z,66.10
2022-11-20T12:50:30.645Z,65.70
2022-11-20T12:52:44.079Z,65.60
2022-11-20T12:55:11.999Z,66.90
2022-11-20T12:57:19.858Z,65.70
2022-11-20T12:59:36.005Z,66.60
2022-11-20T13:01:48.772Z,66.90
2022-11-20T13:03:58.088Z,67.10
2022-11-20T13:06:07.299Z,67.20
2022-11-20T13:08:17.342Z,67.00
2022-11-20T13:10:28.927Z,66.30
2022-11-20T13:12:37.975Z,67.00
2022-11-20T13:14:44.590Z,67.10
2022-11-20T13:16:55.210Z,67.10
2022-11-20T13:18:58.364Z,66.90
2022-11-20T13:21:01.260Z,66.80
2022-11-20T13:23:04.102Z,66.90
2022-11-20T13:25:16.363Z,67.10
2022-11-20T13:27:23.976Z,67.00
2022-11-20T13:29:26.952Z,67.00
2022-11-20T13:31:33.678Z,67.00
2022-11-20T13:33:38.449Z,67.60
2022-11-20T13:35:44.340Z,65.70
2022-11-20T13:37:47.176Z,65.80
2022-11-20T13:39:49.987Z,66.30
2022-11-20T13:41:57.283Z,65.50
2022-11-20T13:44:12.094Z,63.40
2022-11-20T13:46:16.040Z,61.20
2022-11-20T13:48:23.888Z,62.70
2022-11-20T13:50:41.844Z,63.50
2022-11-20T13:52:55.286Z,64.50
2022-11-20T13:55:13.629Z,65.00
2022-11-20T13:57:39.413Z,65.30
2022-11-20T13:59:57.243Z,63.90
2022-11-20T14:02:02.071Z,63.70
2022-11-20T14:04:15.355Z,64.30
2022-11-20T14:06:28.184Z,64.40
2022-11-20T14:08:41.595Z,62.80
2022-11-20T14:10:44.974Z,62.80
2022-11-20T14:12:48.657Z,63.40
2022-11-20T14:14:57.746Z,63.70
2022-11-20T14:17:08.769Z,64.00
2022-11-20T14:19:28.288Z,63.90
2022-11-20T14:21:31.821Z,64.20
2022-11-20T14:23:34.757Z,64.50
2022-11-20T14:25:37.814Z,64.20
2022-11-20T14:27:43.000Z,64.60
2022-11-20T14:29:47.626Z,63.90
2022-11-20T14:31:54.947Z,64.30
2022-11-20T14:33:58.427Z,64.60
2022-11-20T14:36:01.380Z,64.50
2022-11-20T14:38:05.256Z,64.60
2022-11-20T14:40:28.526Z,64.80
2022-11-20T14:42:32.873Z,64.60
2022-11-20T14:44:38.825Z,64.80
2022-11-20T14:46:42.404Z,65.00
2022-11-20T14:48:49.119Z,65.00
2022-11-20T14:50:51.952Z,65.30
2022-11-20T14:52:56.977Z,65.30
2022-11-20T14:55:01.366Z,65.20
2022-11-20T14:57:06.048Z,65.20
2022-11-20T14:59:09.952Z,65.20
2022-11-20T15:01:15.710Z,65.30
2022-11-20T15:03:18.640Z,65.30
2022-11-20T15:05:25.028Z,65.10
2022-11-20T15:07:30.187Z,65.20
2022-11-20T15:09:33.102Z,65.30
2022-11-20T15:11:37.407Z,65.60
2022-11-20T15:13:41.451Z,65.40
2022-11-20T15:15:48.261Z,65.50
2022-11-20T15:17:51.172Z,65.60
2022-11-20T15:19:55.708Z,65.70
2022-11-20T15:22:00.016Z,65.70
2022-11-20T15:24:02.860Z,65.70
2022-11-20T15:26:07.395Z,65.70
2022-11-20T15:28:18.812Z,65.90
2022-11-20T15:30:22.865Z,65.90
2022-11-20T15:32:25.736Z,66.20
2022-11-20T15:34:29.367Z,66.30
2022-11-20T15:36:32.200Z,67.00
2022-11-20T15:38:36.428Z,66.30
2022-11-20T15:40:39.370Z,66.40
2022-11-20T15:43:06.767Z,66.30
2022-11-20T15:45:12.695Z,66.30
2022-11-20T15:47:15.522Z,66.40
2022-11-20T15:49:22.611Z,66.50
2022-11-20T15:51:28.745Z,66.50
2022-11-20T15:53:31.740Z,66.60
2022-11-20T15:55:35.882Z,66.60
2022-11-20T15:57:38.677Z,66.40
2022-11-20T15:59:42.612Z,66.90
2022-11-20T16:01:46.110Z,67.10
2022-11-20T16:03:51.787Z,66.90
2022-11-20T16:05:54.663Z,67.00
2022-11-20T16:07:57.847Z,66.90
2022-11-20T16:10:01.544Z,66.70
2022-11-20T16:12:06.060Z,66.60
2022-11-20T16:14:29.468Z,66.70
2022-11-20T16:16:34.232Z,66.80
2022-11-20T16:18:37.255Z,66.70
2022-11-20T16:20:40.400Z,66.80
2022-11-20T16:22:43.217Z,66.90
2022-11-20T16:24:46.091Z,67.10
2022-11-20T16:26:48.882Z,66.90
2022-11-20T16:28:53.032Z,67.10
2022-11-20T16:30:55.870Z,67.10
2022-11-20T16:32:58.693Z,67.20
2022-11-20T16:35:01.545Z,67.20
2022-11-20T16:37:04.374Z,67.30
2022-11-20T16:39:07.429Z,67.40
2022-11-20T16:41:14.347Z,67.60
2022-11-20T16:43:17.416Z,68.30
2022-11-20T16:45:26.919Z,68.40
2022-11-20T16:47:34.860Z,68.40
2022-11-20T16:49:37.675Z,69.00
2022-11-20T16:51:40.970Z,68.10
2022-11-20T16:53:43.804Z,68.10
2022-11-20T16:55:46.956Z,68.20
2022-11-20T16:57:49.833Z,68.30
2022-11-20T16:59:52.647Z,68.00
2022-11-20T17:01:56.857Z,68.30
2022-11-20T17:04:01.333Z,68.20
2022-11-20T17:06:11.693Z,68.30
2022-11-20T17:08:14.517Z,68.30
2022-11-20T17:10:17.450Z,68.20
2022-11-20T17:12:20.322Z,68.30
2022-11-20T17:14:23.329Z,68.30
2022-11-20T17:16:26.630Z,68.40
2022-11-20T17:18:30.940Z,68.10
2022-11-20T17:20:33.827Z,68.50
2022-11-20T17:22:36.678Z,68.80
2022-11-20T17:24:39.528Z,68.90
2022-11-20T17:26:43.889Z,68.70
2022-11-20T17:28:47.638Z,68.60
2022-11-20T17:30:50.485Z,68.60
2022-11-20T17:32:53.336Z,68.70
2022-11-20T17:34:58.830Z,68.70
2022-11-20T17:37:02.327Z,68.70
2022-11-20T17:39:05.330Z,68.80
2022-11-20T17:41:11.065Z,68.60
2022-11-20T17:43:13.891Z,68.70
2022-11-20T17:45:16.970Z,68.80
2022-11-20T17:47:19.823Z,68.90
2022-11-20T17:49:24.079Z,68.90
2022-11-20T17:51:29.998Z,69.40
2022-11-20T17:53:35.714Z,69.30
2022-11-20T17:55:56.068Z,69.50
2022-11-20T17:58:02.776Z,69.50
2022-11-20T18:00:06.560Z,69.40
2022-11-20T18:02:11.035Z,69.40
2022-11-20T18:04:14.321Z,69.20
2022-11-20T18:06:19.885Z,69.20
2022-11-20T18:08:24.100Z,69.40
2022-11-20T18:10:26.944Z,69.30
2022-11-20T18:12:29.759Z,69.50
2022-11-20T18:14:36.187Z,69.70
2022-11-20T18:16:42.918Z,69.50
2022-11-20T18:18:45.795Z,69.50
2022-11-20T18:20:54.552Z,69.50
2022-11-20T18:22:57.438Z,69.60
2022-11-20T18:25:02.393Z,69.80
2022-11-20T18:27:06.211Z,69.60
2022-11-20T18:29:09.112Z,69.60
2022-11-20T18:31:12.030Z,69.80
2022-11-20T18:33:14.823Z,69.70
2022-11-20T18:35:17.895Z,69.80
2022-11-20T18:37:21.112Z,69.80
2022-11-20T18:39:24.148Z,69.70
2022-11-20T18:41:48.081Z,69.70
2022-11-20T18:44:08.467Z,69.80
2022-11-20T18:46:11.359Z,69.70
2022-11-20T18:48:14.306Z,69.80
2022-11-20T18:50:17.174Z,70.00
2022-11-20T18:52:22.280Z,70.20
2022-11-20T18:54:25.838Z,70.20
2022-11-20T18:56:30.376Z,70.10
2022-11-20T18:58:33.284Z,70.20
2022-11-20T19:00:36.108Z,70.10
2022-11-20T19:02:42.706Z,70.10
2022-11-20T19:04:46.353Z,70.40
2022-11-20T19:06:52.729Z,70.30
2022-11-20T19:08:55.597Z,70.50
2022-11-20T19:11:07.002Z,70.60
2022-11-20T19:13:11.242Z,70.60
2022-11-20T19:15:14.069Z,70.70
2022-11-20T19:17:17.613Z,70.60
2022-11-20T19:19:20.476Z,70.80
2022-11-20T19:21:25.366Z,70.70
2022-11-20T19:23:28.336Z,70.70
2022-11-20T19:25:36.654Z,70.80
2022-11-20T19:27:40.859Z,70.80
2022-11-20T19:29:45.104Z,70.90
2022-11-20T19:31:47.990Z,71.20
2022-11-20T19:33:54.342Z,71.30
2022-11-20T19:35:58.459Z,71.30
2022-11-20T19:38:05.371Z,71.30
2022-11-20T19:40:09.480Z,71.50
2022-11-20T19:42:12.404Z,71.50
2022-11-20T19:44:18.109Z,71.50
2022-11-20T19:46:22.326Z,71.60
2022-11-20T19:48:25.199Z,71.60
2022-11-20T19:50:28.193Z,72.10
2022-11-20T19:52:31.053Z,72.00
2022-11-20T19:54:33.844Z,72.10
2022-11-20T19:56:36.653Z,72.10
2022-11-20T19:58:40.327Z,72.10
2022-11-20T20:00:43.466Z,72.30
2022-11-20T20:02:47.659Z,72.40
2022-11-20T20:04:50.458Z,72.40
2022-11-20T20:06:53.325Z,72.30
2022-11-20T20:08:57.116Z,72.30
2022-11-20T20:11:00.105Z,72.50
2022-11-20T20:13:02.954Z,72.60
2022-11-20T20:15:06.925Z,72.80
2022-11-20T20:17:09.758Z,72.70
2022-11-20T20:19:15.838Z,72.60
2022-11-20T20:21:19.292Z,72.70
2022-11-20T20:23:22.141Z,72.70
2022-11-20T20:25:24.939Z,72.80
2022-11-20T20:27:27.821Z,72.90
2022-11-20T20:29:30.676Z,72.90
2022-11-20T20:31:34.338Z,72.80
2022-11-20T20:33:38.116Z,73.00
2022-11-20T20:35:43.076Z,73.00
2022-11-20T20:37:45.961Z,73.70
2022-11-20T20:39:48.789Z,73.10
2022-11-20T20:41:51.852Z,73.20
2022-11-20T20:44:15.238Z,73.00
2022-11-20T20:46:18.079Z,73.30
2022-11-20T20:48:23.124Z,73.40
2022-11-20T20:50:26.062Z,73.40
2022-11-20T20:52:30.649Z,73.50
2022-11-20T20:54:34.578Z,73.50
2022-11-20T20:56:37.636Z,73.50
2022-11-20T20:58:41.259Z,73.50
2022-11-20T21:00:44.055Z,73.80
2022-11-20T21:02:46.862Z,73.60
2022-11-20T21:04:49.983Z,73.50
2022-11-20T21:06:52.799Z,73.70
2022-11-20T21:08:58.386Z,73.90
2022-11-20T21:11:03.553Z,73.70
2022-11-20T21:13:06.362Z,73.80
2022-11-20T21:15:09.733Z,73.90
2022-11-20T21:17:15.266Z,73.90
2022-11-20T21:19:18.423Z,74.00
2022-11-20T21:21:38.966Z,74.00
2022-11-20T21:23:42.801Z,74.10
2022-11-20T21:25:46.962Z,73.90
2022-11-20T21:27:49.888Z,74.10
2022-11-20T21:29:52.687Z,74.30
2022-11-20T21:31:55.852Z,74.40
2022-11-20T21:33:59.269Z,74.40
2022-11-20T21:36:02.099Z,74.20
2022-11-20T21:38:05.163Z,74.20
2022-11-20T21:40:09.392Z,74.40
2022-11-20T21:42:14.758Z,74.50
2022-11-20T21:44:30.921Z,74.50
2022-11-20T21:46:38.809Z,74.60
2022-11-20T21:48:42.865Z,74.50
2022-11-20T21:50:45.704Z,74.70
2022-11-20T21:52:48.575Z,74.70
2022-11-20T21:54:51.400Z,74.50
2022-11-20T21:56:54.200Z,74.50
2022-11-20T21:58:58.871Z,74.40
2022-11-20T22:01:07.900Z,74.60
2022-11-20T22:03:10.738Z,74.50
2022-11-20T22:05:13.614Z,74.30
2022-11-20T22:07:16.592Z,74.40
2022-11-20T22:09:19.488Z,74.50
2022-11-20T22:11:23.169Z,74.70
2022-11-20T22:13:44.129Z,74.70
2022-11-20T22:16:00.324Z,74.60
2022-11-20T22:18:14.121Z,74.60
2022-11-20T22:20:17.191Z,74.80
2022-11-20T22:22:19.996Z,74.80
2022-11-20T22:24:24.198Z,74.70
2022-11-20T22:26:28.888Z,74.70
2022-11-20T22:28:31.772Z,74.80
2022-11-20T22:30:34.670Z,74.70
2022-11-20T22:32:38.942Z,74.60
2022-11-20T22:34:41.812Z,74.90
2022-11-20T22:36:44.709Z,74.70
2022-11-20T22:38:48.419Z,74.60
2022-11-20T22:40:53.640Z,74.70
2022-11-20T22:42:56.506Z,74.80
2022-11-20T22:44:59.339Z,74.80
2022-11-20T22:47:02.657Z,74.90
2022-11-20T22:49:09.602Z,74.70
2022-11-20T22:51:14.363Z,74.80
2022-11-20T22:53:17.176Z,74.80
2022-11-20T22:55:20.055Z,74.70
2022-11-20T22:57:22.863Z,74.80
2022-11-20T22:59:25.741Z,74.70
2022-11-20T23:01:30.096Z,74.80
2022-11-20T23:03:32.959Z,74.80
2022-11-20T23:05:37.155Z,74.90
2022-11-20T23:07:41.309Z,74.90
2022-11-20T23:09:44.320Z,74.70
2022-11-20T23:11:47.171Z,74.70
2022-11-20T23:13:54.130Z,74.90
2022-11-20T23:16:01.687Z,74.70
2022-11-20T23:18:04.565Z,74.70
2022-11-20T23:20:08.914Z,74.70
2022-11-20T23:22:13.133Z,74.80
2022-11-20T23:24:15.921Z,74.90
2022-11-20T23:26:20.651Z,74.70
2022-11-20T23:28:23.438Z,74.90
2022-11-20T23:30:26.300Z,74.90
2022-11-20T23:32:29.117Z,74.70
2022-11-20T23:34:31.922Z,75.00
2022-11-20T23:36:34.787Z,74.90
2022-11-20T23:38:39.373Z,74.80
2022-11-20T23:40:42.468Z,74.70
2022-11-20T23:42:59.219Z,74.70
2022-11-20T23:45:02.020Z,74.80
2022-11-20T23:47:04.896Z,74.70
2022-11-20T23:49:07.804Z,74.60
2022-11-20T23:51:10.944Z,75.50
2022-11-20T23:53:15.162Z,75.00
2022-11-20T23:55:19.350Z,74.90
2022-11-20T23:57:22.147Z,74.70
2022-11-20T23:59:25.711Z,74.90
